Eko 2 — SY9957 — position and weather

sailwx.info

Track history (hours):
 
Tides and Currents Weather Stations Pressure Air Temp Water Temp Dewpoint Dewpoint Depression Visibility Wind Speed Wind Dir Waves Ship Positions

Eko 2

Last reported at 2015-Jan-22 18:14 UTC. Time now 2015-Jan-26 14:34 UTC.
Position N 36°55' E 027°02'.

Length 89 m; draft 4.3 m.

Type: Ship (hazmat cat A). MMSI: 240827000.

Date/timePositionNaut miles runAvg speedWind from/ knotsBaromVisibWave heightAir tempDewpointWater temp
2015-Jan-22 18:14N 36°55' E 027°02'15 8.8
2015-Jan-22 16:29N 37°06' E 026°49'49 3.3
2015-Jan-22 01:31N 37°13' E 025°49'1310.7
2015-Jan-22 00:19N 37°15' E 025°33'810.7
2015-Jan-21 23:33N 37°14' E 025°23'811.3
2015-Jan-21 22:50N 37°12' E 025°13'111.3
2015-Jan-21 22:46N 37°11' E 025°12'7 1.2
2015-Jan-21 17:07N 37°05' E 025°09'0 0.0
2015-Jan-21 15:31N 37°05' E 025°09'2 2.2
2015-Jan-21 14:33N 37°06' E 025°07'8 7.5
2015-Jan-21 13:33N 37°02' E 024°59'31 9.9
2015-Jan-21 10:26N 36°35' E 025°17'1011.3
2015-Jan-21 09:33N 36°27' E 025°23'4 4.2
2015-Jan-21 08:33N 36°23' E 025°26'0 0.0
2015-Jan-21 07:33N 36°23' E 025°26'0 0.0
2015-Jan-21 06:33N 36°23' E 025°26'0 0.0
2015-Jan-21 05:33N 36°23' E 025°26'0 0.0
2015-Jan-21 04:30N 36°23' E 025°26'0 0.0
2015-Jan-21 03:33N 36°23' E 025°26'0 0.0
2015-Jan-21 02:30N 36°23' E 025°26'0 0.0
2015-Jan-21 01:33N 36°23' E 025°26'0 0.0
2015-Jan-21 00:33N 36°23' E 025°26'0 0.0
2015-Jan-20 23:30N 36°23' E 025°26'0 0.0
2015-Jan-20 22:33N 36°23' E 025°26'0 0.0
2015-Jan-20 21:30N 36°23' E 025°26'0 0.0
2015-Jan-20 20:33N 36°23' E 025°26'0 0.0
2015-Jan-20 19:33N 36°23' E 025°26'0 0.0
2015-Jan-20 18:33N 36°23' E 025°26'0 0.0
2015-Jan-20 17:33N 36°23' E 025°26'0 0.0
2015-Jan-20 16:33N 36°23' E 025°26'0 0.0
2015-Jan-20 15:33N 36°23' E 025°26'0 0.0
2015-Jan-20 14:33N 36°23' E 025°26'0 0.0
2015-Jan-20 13:33N 36°23' E 025°26'0 0.0
2015-Jan-20 12:33N 36°23' E 025°26'0 0.0
2015-Jan-20 11:33N 36°23' E 025°26'0 0.0
2015-Jan-20 10:33N 36°23' E 025°26'0 0.0
2015-Jan-20 09:33N 36°23' E 025°26'0 0.0
2015-Jan-20 08:33N 36°23' E 025°26'0 0.0
2015-Jan-20 07:33N 36°23' E 025°26'0 0.0
2015-Jan-20 06:33N 36°23' E 025°26'0 0.0
2015-Jan-20 05:27N 36°23' E 025°26'0 0.0
2015-Jan-20 04:27N 36°23' E 025°26'0 0.0
2015-Jan-20 03:33N 36°23' E 025°26'0 0.0
2015-Jan-20 02:33N 36°23' E 025°26'0 0.0
2015-Jan-20 01:21N 36°23' E 025°26'0 0.0
2015-Jan-20 00:33N 36°23' E 025°26'0 0.0
2015-Jan-19 23:33N 36°23' E 025°26'0 0.0
2015-Jan-19 22:33N 36°23' E 025°26'0 0.0
2015-Jan-19 21:33N 36°23' E 025°26'0 0.0
2015-Jan-19 20:33N 36°23' E 025°26'0 0.0
2015-Jan-19 19:33N 36°23' E 025°26'0 0.0
2015-Jan-19 18:33N 36°23' E 025°26'5 5.2
2015-Jan-19 17:33N 36°23' E 025°19'1111.2
2015-Jan-19 16:33N 36°28' E 025°07'1210.8
2015-Jan-19 15:26N 36°34' E 024°55'87 3.5
2015-Jan-18 14:33N 37°40' E 023°43'1110.7
2015-Jan-18 13:33N 37°50' E 023°37'12 1.4
2015-Jan-18 04:28N 38°02' E 023°32'0 0.0
2015-Jan-18 03:31N 38°02' E 023°32'0 0.0
2015-Jan-18 02:13N 38°02' E 023°32'0 0.0
2015-Jan-18 01:31N 38°02' E 023°32'0 0.0
2015-Jan-18 00:28N 38°02' E 023°32'0 0.0
2015-Jan-17 23:25N 38°02' E 023°32'0 0.0
2015-Jan-17 22:31N 38°02' E 023°32'0 0.0
2015-Jan-17 21:31N 38°02' E 023°32'0 0.0
2015-Jan-17 20:31N 38°02' E 023°32'0 0.0
2015-Jan-17 19:28N 38°02' E 023°32'0 0.0
2015-Jan-17 18:31N 38°02' E 023°32'0 0.1
2015-Jan-17 17:31N 38°02' E 023°32'1 1.3
2015-Jan-17 16:33N 38°02' E 023°34'2 1.1
2015-Jan-17 15:08N 38°02' E 023°36'0 0.0
2015-Jan-17 14:26N 38°02' E 023°36'0 0.0
2015-Jan-17 13:32N 38°02' E 023°36'0 0.0
2015-Jan-17 12:23N 38°02' E 023°36'0 0.0
2015-Jan-17 08:26N 38°02' E 023°36'0 0.0
2015-Jan-17 07:25N 38°02' E 023°36'2 2.2
2015-Jan-17 06:33N 38°01' E 023°34'8 8.0
2015-Jan-17 05:33N 37°53' E 023°38'1110.5
2015-Jan-17 04:33N 37°44' E 023°43'10 9.5
2015-Jan-17 03:29N 37°37' E 023°52'4510.4
2015-Jan-16 23:07N 37°19' E 024°45'610.7
2015-Jan-16 22:33N 37°16' E 024°51'1010.4
2015-Jan-16 21:33N 37°09' E 025°01'5 0.3
2015-Jan-16 05:11N 37°07' E 025°07'5 8.4
2015-Jan-16 04:34N 37°12' E 025°07'10 9.6
2015-Jan-16 03:33N 37°21' E 025°07'9 8.8
2015-Jan-16 02:33N 37°30' E 025°03'4 0.2
2015-Jan-15 09:29N 37°29' E 024°58'4 4.4
2015-Jan-15 08:30N 37°25' E 024°59'0 0.1
2015-Jan-15 07:30N 37°25' E 024°59'0 0.0
2015-Jan-15 06:30N 37°25' E 024°59'0 0.1
2015-Jan-15 05:30N 37°25' E 024°59'0 0.0
2015-Jan-15 04:30N 37°25' E 024°59'0 0.0
2015-Jan-15 03:30N 37°25' E 024°59'0 0.0
2015-Jan-15 02:30N 37°25' E 024°59'0 0.0
2015-Jan-15 01:30N 37°25' E 024°59'0 0.0
2015-Jan-15 00:30N 37°25' E 024°59'0 0.0
2015-Jan-14 23:30N 37°25' E 024°59'0 0.0
2015-Jan-14 22:30N 37°25' E 024°59'0 0.0
2015-Jan-14 21:33N 37°25' E 024°59'0 0.0
2015-Jan-14 20:33N 37°25' E 024°59'2 2.2
2015-Jan-14 19:29N 37°26' E 024°56'0 0.0
2015-Jan-14 18:29N 37°26' E 024°56'1 1.2
2015-Jan-14 17:32N 37°26' E 024°58'1 1.4
2015-Jan-14 16:31N 37°24' E 024°59'0 0.1
2015-Jan-14 15:31N 37°25' E 024°59'0 0.1
2015-Jan-14 14:33N 37°25' E 024°59'3 2.4
2015-Jan-14 13:30N 37°24' E 025°02'910.1
2015-Jan-14 12:33N 37°17' E 025°10'10 9.7
2015-Jan-14 11:33N 37°10' E 025°18'1 0.5
2015-Jan-14 10:32N 37°10' E 025°18'2 1.8
2015-Jan-14 09:33N 37°08' E 025°19'1010.1
2015-Jan-14 08:33N 36°58' E 025°15'6 5.5
2015-Jan-14 07:32N 36°59' E 025°08'0 0.0
2015-Jan-14 06:28N 36°59' E 025°08'0 0.0
2015-Jan-14 05:28N 36°59' E 025°08'0 0.0
2015-Jan-14 04:29N 36°59' E 025°08'0 0.0
2015-Jan-14 03:27N 36°59' E 025°08'0 0.0
2015-Jan-14 02:33N 36°59' E 025°08'0 0.0
2015-Jan-14 01:33N 36°59' E 025°08'0 0.0
2015-Jan-14 00:31N 36°59' E 025°08'0 0.0
2015-Jan-13 23:33N 36°59' E 025°08'0 0.0
2015-Jan-13 22:25N 36°59' E 025°08'0 0.0
2015-Jan-13 21:29N 36°59' E 025°08'0 0.0
2015-Jan-13 20:33N 36°59' E 025°08'0 0.0
2015-Jan-13 19:34N 36°59' E 025°08'0 0.0
2015-Jan-13 18:28N 36°59' E 025°08'0 0.0
2015-Jan-13 16:28N 36°59' E 025°08'0 0.0
2015-Jan-13 15:19N 36°59' E 025°08'0 0.0
2015-Jan-13 14:28N 36°59' E 025°08'0 0.0
2015-Jan-13 13:31N 36°59' E 025°08'0 0.0
2015-Jan-13 12:33N 36°59' E 025°08'0 0.0
2015-Jan-13 11:33N 36°59' E 025°08'0 0.0
2015-Jan-13 10:22N 36°59' E 025°08'0 0.0
2015-Jan-13 09:28N 36°59' E 025°08'0 0.0
2015-Jan-13 08:26N 36°59' E 025°08'0 0.0
2015-Jan-13 07:32N 36°59' E 025°08'0 0.0
2015-Jan-13 06:20N 36°59' E 025°08'0 0.0
2015-Jan-13 05:26N 36°59' E 025°08'0 0.0
2015-Jan-13 04:32N 36°59' E 025°08'0 0.0
2015-Jan-13 03:14N 36°59' E 025°08'0 0.0
2015-Jan-13 02:32N 36°59' E 025°08'0 0.0
2015-Jan-13 01:26N 36°59' E 025°08'0 0.0
2015-Jan-13 00:29N 36°59' E 025°08'0 0.0
2015-Jan-12 23:32N 36°59' E 025°08'0 0.0
2015-Jan-12 22:33N 36°59' E 025°08'0 0.0
2015-Jan-12 21:29N 36°59' E 025°08'0 0.0
2015-Jan-12 20:29N 36°59' E 025°08'0 0.0
2015-Jan-12 19:31N 36°59' E 025°08'0 0.0
2015-Jan-12 18:31N 36°59' E 025°08'  
Track history (hours):
 
Tides and Currents Weather Stations Pressure Air Temp Water Temp Dewpoint Dewpoint Depression Visibility Wind Speed Wind Dir Waves Ship Positions

Eko 2

Last reported at 2015-Jan-22 18:14 UTC. Time now 2015-Jan-26 14:34 UTC.
Position N 36°55' E 027°02'.

Length 89 m; draft 4.3 m.

Type: Ship (hazmat cat A). MMSI: 240827000.

Date/timePositionNaut miles runAvg speedWind from/ knotsBaromVisibWave heightAir tempDewpointWater temp
2015-Jan-22 18:14N 36°55' E 027°02'15 8.8
2015-Jan-22 16:29N 37°06' E 026°49'49 3.3
2015-Jan-22 01:31N 37°13' E 025°49'1310.7
2015-Jan-22 00:19N 37°15' E 025°33'810.7
2015-Jan-21 23:33N 37°14' E 025°23'811.3
2015-Jan-21 22:50N 37°12' E 025°13'111.3
2015-Jan-21 22:46N 37°11' E 025°12'7 1.2
2015-Jan-21 17:07N 37°05' E 025°09'0 0.0
2015-Jan-21 15:31N 37°05' E 025°09'2 2.2
2015-Jan-21 14:33N 37°06' E 025°07'8 7.5
2015-Jan-21 13:33N 37°02' E 024°59'31 9.9
2015-Jan-21 10:26N 36°35' E 025°17'1011.3
2015-Jan-21 09:33N 36°27' E 025°23'4 4.2
2015-Jan-21 08:33N 36°23' E 025°26'0 0.0
2015-Jan-21 07:33N 36°23' E 025°26'0 0.0
2015-Jan-21 06:33N 36°23' E 025°26'0 0.0
2015-Jan-21 05:33N 36°23' E 025°26'0 0.0
2015-Jan-21 04:30N 36°23' E 025°26'0 0.0
2015-Jan-21 03:33N 36°23' E 025°26'0 0.0
2015-Jan-21 02:30N 36°23' E 025°26'0 0.0
2015-Jan-21 01:33N 36°23' E 025°26'0 0.0
2015-Jan-21 00:33N 36°23' E 025°26'0 0.0
2015-Jan-20 23:30N 36°23' E 025°26'0 0.0
2015-Jan-20 22:33N 36°23' E 025°26'0 0.0
2015-Jan-20 21:30N 36°23' E 025°26'0 0.0
2015-Jan-20 20:33N 36°23' E 025°26'0 0.0
2015-Jan-20 19:33N 36°23' E 025°26'0 0.0
2015-Jan-20 18:33N 36°23' E 025°26'0 0.0
2015-Jan-20 17:33N 36°23' E 025°26'0 0.0
2015-Jan-20 16:33N 36°23' E 025°26'0 0.0
2015-Jan-20 15:33N 36°23' E 025°26'0 0.0
2015-Jan-20 14:33N 36°23' E 025°26'0 0.0
2015-Jan-20 13:33N 36°23' E 025°26'0 0.0
2015-Jan-20 12:33N 36°23' E 025°26'0 0.0
2015-Jan-20 11:33N 36°23' E 025°26'0 0.0
2015-Jan-20 10:33N 36°23' E 025°26'0 0.0
2015-Jan-20 09:33N 36°23' E 025°26'0 0.0
2015-Jan-20 08:33N 36°23' E 025°26'0 0.0
2015-Jan-20 07:33N 36°23' E 025°26'0 0.0
2015-Jan-20 06:33N 36°23' E 025°26'0 0.0
2015-Jan-20 05:27N 36°23' E 025°26'0 0.0
2015-Jan-20 04:27N 36°23' E 025°26'0 0.0
2015-Jan-20 03:33N 36°23' E 025°26'0 0.0
2015-Jan-20 02:33N 36°23' E 025°26'0 0.0
2015-Jan-20 01:21N 36°23' E 025°26'0 0.0
2015-Jan-20 00:33N 36°23' E 025°26'0 0.0
2015-Jan-19 23:33N 36°23' E 025°26'0 0.0
2015-Jan-19 22:33N 36°23' E 025°26'0 0.0
2015-Jan-19 21:33N 36°23' E 025°26'0 0.0
2015-Jan-19 20:33N 36°23' E 025°26'0 0.0
2015-Jan-19 19:33N 36°23' E 025°26'0 0.0
2015-Jan-19 18:33N 36°23' E 025°26'5 5.2
2015-Jan-19 17:33N 36°23' E 025°19'1111.2
2015-Jan-19 16:33N 36°28' E 025°07'1210.8
2015-Jan-19 15:26N 36°34' E 024°55'87 3.5
2015-Jan-18 14:33N 37°40' E 023°43'1110.7
2015-Jan-18 13:33N 37°50' E 023°37'12 1.4
2015-Jan-18 04:28N 38°02' E 023°32'0 0.0
2015-Jan-18 03:31N 38°02' E 023°32'0 0.0
2015-Jan-18 02:13N 38°02' E 023°32'0 0.0
2015-Jan-18 01:31N 38°02' E 023°32'0 0.0
2015-Jan-18 00:28N 38°02' E 023°32'0 0.0
2015-Jan-17 23:25N 38°02' E 023°32'0 0.0
2015-Jan-17 22:31N 38°02' E 023°32'0 0.0
2015-Jan-17 21:31N 38°02' E 023°32'0 0.0
2015-Jan-17 20:31N 38°02' E 023°32'0 0.0
2015-Jan-17 19:28N 38°02' E 023°32'0 0.0
2015-Jan-17 18:31N 38°02' E 023°32'0 0.1
2015-Jan-17 17:31N 38°02' E 023°32'1 1.3
2015-Jan-17 16:33N 38°02' E 023°34'2 1.1
2015-Jan-17 15:08N 38°02' E 023°36'0 0.0
2015-Jan-17 14:26N 38°02' E 023°36'0 0.0
2015-Jan-17 13:32N 38°02' E 023°36'0 0.0
2015-Jan-17 12:23N 38°02' E 023°36'0 0.0
2015-Jan-17 08:26N 38°02' E 023°36'0 0.0
2015-Jan-17 07:25N 38°02' E 023°36'2 2.2
2015-Jan-17 06:33N 38°01' E 023°34'8 8.0
2015-Jan-17 05:33N 37°53' E 023°38'1110.5
2015-Jan-17 04:33N 37°44' E 023°43'10 9.5
2015-Jan-17 03:29N 37°37' E 023°52'4510.4
2015-Jan-16 23:07N 37°19' E 024°45'610.7
2015-Jan-16 22:33N 37°16' E 024°51'1010.4
2015-Jan-16 21:33N 37°09' E 025°01'5 0.3
2015-Jan-16 05:11N 37°07' E 025°07'5 8.4
2015-Jan-16 04:34N 37°12' E 025°07'10 9.6
2015-Jan-16 03:33N 37°21' E 025°07'9 8.8
2015-Jan-16 02:33N 37°30' E 025°03'4 0.2
2015-Jan-15 09:29N 37°29' E 024°58'4 4.4
2015-Jan-15 08:30N 37°25' E 024°59'0 0.1
2015-Jan-15 07:30N 37°25' E 024°59'0 0.0
2015-Jan-15 06:30N 37°25' E 024°59'0 0.1
2015-Jan-15 05:30N 37°25' E 024°59'0 0.0
2015-Jan-15 04:30N 37°25' E 024°59'0 0.0
2015-Jan-15 03:30N 37°25' E 024°59'0 0.0
2015-Jan-15 02:30N 37°25' E 024°59'0 0.0
2015-Jan-15 01:30N 37°25' E 024°59'0 0.0
2015-Jan-15 00:30N 37°25' E 024°59'0 0.0
2015-Jan-14 23:30N 37°25' E 024°59'0 0.0
2015-Jan-14 22:30N 37°25' E 024°59'0 0.0
2015-Jan-14 21:33N 37°25' E 024°59'0 0.0
2015-Jan-14 20:33N 37°25' E 024°59'2 2.2
2015-Jan-14 19:29N 37°26' E 024°56'0 0.0
2015-Jan-14 18:29N 37°26' E 024°56'1 1.2
2015-Jan-14 17:32N 37°26' E 024°58'1 1.4
2015-Jan-14 16:31N 37°24' E 024°59'0 0.1
2015-Jan-14 15:31N 37°25' E 024°59'0 0.1
2015-Jan-14 14:33N 37°25' E 024°59'3 2.4
2015-Jan-14 13:30N 37°24' E 025°02'910.1
2015-Jan-14 12:33N 37°17' E 025°10'10 9.7
2015-Jan-14 11:33N 37°10' E 025°18'1 0.5
2015-Jan-14 10:32N 37°10' E 025°18'2 1.8
2015-Jan-14 09:33N 37°08' E 025°19'1010.1
2015-Jan-14 08:33N 36°58' E 025°15'6 5.5
2015-Jan-14 07:32N 36°59' E 025°08'0 0.0
2015-Jan-14 06:28N 36°59' E 025°08'0 0.0
2015-Jan-14 05:28N 36°59' E 025°08'0 0.0
2015-Jan-14 04:29N 36°59' E 025°08'0 0.0
2015-Jan-14 03:27N 36°59' E 025°08'0 0.0
2015-Jan-14 02:33N 36°59' E 025°08'0 0.0
2015-Jan-14 01:33N 36°59' E 025°08'0 0.0
2015-Jan-14 00:31N 36°59' E 025°08'0 0.0
2015-Jan-13 23:33N 36°59' E 025°08'0 0.0
2015-Jan-13 22:25N 36°59' E 025°08'0 0.0
2015-Jan-13 21:29N 36°59' E 025°08'0 0.0
2015-Jan-13 20:33N 36°59' E 025°08'0 0.0
2015-Jan-13 19:34N 36°59' E 025°08'0 0.0
2015-Jan-13 18:28N 36°59' E 025°08'0 0.0
2015-Jan-13 16:28N 36°59' E 025°08'0 0.0
2015-Jan-13 15:19N 36°59' E 025°08'0 0.0
2015-Jan-13 14:28N 36°59' E 025°08'0 0.0
2015-Jan-13 13:31N 36°59' E 025°08'0 0.0
2015-Jan-13 12:33N 36°59' E 025°08'0 0.0
2015-Jan-13 11:33N 36°59' E 025°08'0 0.0
2015-Jan-13 10:22N 36°59' E 025°08'0 0.0
2015-Jan-13 09:28N 36°59' E 025°08'0 0.0
2015-Jan-13 08:26N 36°59' E 025°08'0 0.0
2015-Jan-13 07:32N 36°59' E 025°08'0 0.0
2015-Jan-13 06:20N 36°59' E 025°08'0 0.0
2015-Jan-13 05:26N 36°59' E 025°08'0 0.0
2015-Jan-13 04:32N 36°59' E 025°08'0 0.0
2015-Jan-13 03:14N 36°59' E 025°08'0 0.0
2015-Jan-13 02:32N 36°59' E 025°08'0 0.0
2015-Jan-13 01:26N 36°59' E 025°08'0 0.0
2015-Jan-13 00:29N 36°59' E 025°08'0 0.0
2015-Jan-12 23:32N 36°59' E 025°08'0 0.0
2015-Jan-12 22:33N 36°59' E 025°08'0 0.0
2015-Jan-12 21:29N 36°59' E 025°08'0 0.0
2015-Jan-12 20:29N 36°59' E 025°08'0 0.0
2015-Jan-12 19:31N 36°59' E 025°08'0 0.0
2015-Jan-12 18:31N 36°59' E 025°08'  

Dump ship's entire track history